createdAt,value
2023-05-25T00:01:02.669Z,52.45
2023-05-25T00:01:57.699Z,52.78
2023-05-25T00:02:56.807Z,52.58
2023-05-25T00:03:56.746Z,52.03
2023-05-25T00:04:56.672Z,52.20
2023-05-25T00:05:56.662Z,52.26
2023-05-25T00:06:56.655Z,51.69
2023-05-25T00:07:56.662Z,49.17
2023-05-25T00:08:56.652Z,51.28
2023-05-25T00:09:56.620Z,51.85
2023-05-25T00:10:56.598Z,53.20
2023-05-25T00:11:56.584Z,49.63
2023-05-25T00:12:56.689Z,52.55
2023-05-25T00:13:56.630Z,53.57
2023-05-25T00:14:56.582Z,51.70
2023-05-25T00:15:56.600Z,51.12
2023-05-25T00:16:56.663Z,48.92
2023-05-25T00:17:56.658Z,51.75
2023-05-25T00:18:56.553Z,49.05
2023-05-25T00:19:56.604Z,51.38
2023-05-25T00:20:56.567Z,51.30
2023-05-25T00:21:56.523Z,50.98
2023-05-25T00:22:56.568Z,50.54
2023-05-25T00:23:56.525Z,48.83
2023-05-25T00:24:56.510Z,51.12
2023-05-25T00:25:56.539Z,51.42
2023-05-25T00:26:56.489Z,47.82
2023-05-25T00:27:56.496Z,50.33
2023-05-25T00:28:56.482Z,48.68
2023-05-25T00:29:56.471Z,47.08
2023-05-25T00:30:56.544Z,49.89
2023-05-25T00:31:56.463Z,46.00
2023-05-25T00:32:56.460Z,47.62
2023-05-25T00:33:56.447Z,49.24
2023-05-25T00:34:56.439Z,50.39
2023-05-25T00:35:56.428Z,47.32
2023-05-25T00:36:56.452Z,47.30
2023-05-25T00:37:56.448Z,46.02
2023-05-25T00:38:56.449Z,48.52
2023-05-25T00:39:56.460Z,50.19
2023-05-25T00:40:56.403Z,47.43
2023-05-25T00:41:56.394Z,44.40
2023-05-25T00:42:56.429Z,44.32
2023-05-25T00:43:56.695Z,44.17
2023-05-25T00:44:56.381Z,46.91
2023-05-25T00:45:56.365Z,45.38
2023-05-25T00:46:57.241Z,45.29
2023-05-25T00:47:56.401Z,47.77
2023-05-25T00:48:56.341Z,46.27
2023-05-25T00:49:56.336Z,46.69
2023-05-25T00:50:56.336Z,45.13
2023-05-25T00:51:56.333Z,44.63
2023-05-25T00:52:56.303Z,44.14
2023-05-25T00:53:56.699Z,45.29
2023-05-25T00:54:56.302Z,46.25
2023-05-25T00:55:56.298Z,46.83
2023-05-25T00:56:56.314Z,42.98
2023-05-25T00:57:56.280Z,44.94
2023-05-25T00:58:56.294Z,41.54
2023-05-25T00:59:56.290Z,45.10
2023-05-25T01:00:56.313Z,42.83
2023-05-25T01:01:56.293Z,43.23
2023-05-25T01:02:56.316Z,44.54
2023-05-25T01:03:56.308Z,43.17
2023-05-25T01:04:56.233Z,43.04
2023-05-25T01:05:56.231Z,41.34
2023-05-25T01:06:56.197Z,43.25
2023-05-25T01:07:56.211Z,40.84
2023-05-25T01:08:56.706Z,43.83
2023-05-25T01:09:56.202Z,40.17
2023-05-25T01:10:56.210Z,42.08
2023-05-25T01:11:56.222Z,42.22
2023-05-25T01:12:56.177Z,39.23
2023-05-25T01:13:56.190Z,40.07
2023-05-25T01:14:56.149Z,40.04
2023-05-25T01:15:56.234Z,43.51
2023-05-25T01:16:56.140Z,40.99
2023-05-25T01:17:56.172Z,42.20
2023-05-25T01:18:56.182Z,38.63
2023-05-25T01:20:56.204Z,43.93
2023-05-25T01:21:56.093Z,42.24
2023-05-25T01:22:56.114Z,42.28
2023-05-25T01:23:56.172Z,40.91
2023-05-25T01:24:56.097Z,40.21
2023-05-25T01:25:56.099Z,38.12
2023-05-25T01:26:56.070Z,38.05
2023-05-25T01:27:56.091Z,39.05
2023-05-25T01:28:56.105Z,39.09
2023-05-25T01:29:56.049Z,37.77
2023-05-25T01:30:56.112Z,39.16
2023-05-25T01:31:56.105Z,38.62
2023-05-25T01:32:56.090Z,38.80
2023-05-25T01:33:56.022Z,36.64
2023-05-25T01:34:56.036Z,38.91
2023-05-25T01:35:56.037Z,38.07
2023-05-25T01:36:56.006Z,39.24
2023-05-25T01:37:56.010Z,36.73
2023-05-25T01:38:55.995Z,38.23
2023-05-25T01:39:55.998Z,35.62
2023-05-25T01:40:55.965Z,40.75
2023-05-25T01:41:55.980Z,36.69
2023-05-25T01:42:55.936Z,38.92
2023-05-25T01:43:55.994Z,36.93
2023-05-25T01:44:55.952Z,36.57
2023-05-25T01:45:55.946Z,35.67
2023-05-25T01:46:55.943Z,36.56
2023-05-25T01:47:55.992Z,36.09
2023-05-25T01:48:55.959Z,38.22
2023-05-25T01:49:55.928Z,37.71
2023-05-25T01:50:55.896Z,36.68
2023-05-25T01:51:55.940Z,34.54
2023-05-25T01:52:55.893Z,36.16
2023-05-25T01:53:55.885Z,34.08
2023-05-25T01:54:55.913Z,33.59
2023-05-25T01:55:55.866Z,34.49
2023-05-25T01:56:55.880Z,33.97
2023-05-25T01:57:55.887Z,35.93
2023-05-25T01:58:55.897Z,34.07
2023-05-25T01:59:55.841Z,35.55
2023-05-25T02:00:55.943Z,34.46
2023-05-25T02:01:55.907Z,34.09
2023-05-25T02:02:55.899Z,34.22
2023-05-25T02:03:55.868Z,32.49
2023-05-25T02:04:55.834Z,32.42
2023-05-25T02:05:55.841Z,31.95
2023-05-25T02:06:55.810Z,33.03
2023-05-25T02:07:55.859Z,34.40
2023-05-25T02:08:55.777Z,33.26
2023-05-25T02:09:55.786Z,31.91
2023-05-25T02:10:55.824Z,33.57
2023-05-25T02:11:55.781Z,32.87
2023-05-25T02:12:55.742Z,31.61
2023-05-25T02:13:55.799Z,31.42
2023-05-25T02:14:55.765Z,32.58
2023-05-25T02:15:55.760Z,33.57
2023-05-25T02:16:55.741Z,33.87
2023-05-25T02:17:55.812Z,31.65
2023-05-25T02:18:55.768Z,30.44
2023-05-25T02:19:55.765Z,29.56
2023-05-25T02:20:55.696Z,31.46
2023-05-25T02:21:55.734Z,29.27
2023-05-25T02:22:55.686Z,32.83
2023-05-25T02:23:55.725Z,33.50
2023-05-25T02:24:55.698Z,31.77
2023-05-25T02:25:55.687Z,31.46
2023-05-25T02:26:55.689Z,32.00
2023-05-25T02:27:55.655Z,32.22
2023-05-25T02:28:55.715Z,29.55
2023-05-25T02:29:55.707Z,32.48
2023-05-25T02:30:55.680Z,29.01
2023-05-25T02:31:55.639Z,27.40
2023-05-25T02:32:55.699Z,28.56
2023-05-25T02:33:55.624Z,30.57
2023-05-25T02:34:55.615Z,27.24
2023-05-25T02:35:55.591Z,29.14
2023-05-25T02:36:55.584Z,30.51
2023-05-25T02:37:55.593Z,27.41
2023-05-25T02:38:55.788Z,32.63
2023-05-25T02:39:55.618Z,29.59
2023-05-25T02:40:55.604Z,30.17
2023-05-25T02:41:55.590Z,26.71
2023-05-25T02:42:55.553Z,26.21
2023-05-25T02:43:55.554Z,27.80
2023-05-25T02:44:55.532Z,29.62
2023-05-25T02:45:55.541Z,27.52
2023-05-25T02:46:55.582Z,29.91
2023-05-25T02:47:55.573Z,29.87
2023-05-25T02:48:55.519Z,27.01
2023-05-25T02:49:55.512Z,28.28
2023-05-25T02:50:55.473Z,28.68
2023-05-25T02:51:55.489Z,30.37
2023-05-25T02:52:55.479Z,28.80
2023-05-25T02:53:55.509Z,28.06
2023-05-25T02:54:55.468Z,28.37
2023-05-25T02:55:55.489Z,28.21
2023-05-25T02:56:55.491Z,28.06
2023-05-25T02:57:55.486Z,27.03
2023-05-25T02:58:55.433Z,27.64
2023-05-25T02:59:55.449Z,27.25
2023-05-25T03:00:55.484Z,27.07
2023-05-25T03:01:55.411Z,28.63
2023-05-25T03:02:55.412Z,29.95
2023-05-25T03:03:55.497Z,28.10
2023-05-25T03:04:55.388Z,29.47
2023-05-25T03:05:55.413Z,27.21
2023-05-25T03:06:55.397Z,27.31
2023-05-25T03:07:55.362Z,28.40
2023-05-25T03:08:55.365Z,27.43
2023-05-25T03:09:55.367Z,28.37
2023-05-25T03:10:55.328Z,27.62
2023-05-25T03:11:55.340Z,28.16
2023-05-25T03:12:55.401Z,27.95
2023-05-25T03:13:55.327Z,27.93
2023-05-25T03:14:55.343Z,25.17
2023-05-25T03:15:55.316Z,26.57
2023-05-25T03:16:55.347Z,26.69
2023-05-25T03:17:55.334Z,28.82
2023-05-25T03:18:55.347Z,27.67
2023-05-25T03:19:55.330Z,26.99
2023-05-25T03:20:55.293Z,27.75
2023-05-25T03:21:55.298Z,26.94
2023-05-25T03:22:55.308Z,26.57
2023-05-25T03:23:55.266Z,28.74
2023-05-25T03:24:55.272Z,29.06
2023-05-25T03:25:55.238Z,26.82
2023-05-25T03:26:55.221Z,29.48
2023-05-25T03:27:55.213Z,30.30
2023-05-25T03:28:55.235Z,28.09
2023-05-25T03:29:55.204Z,26.84
2023-05-25T03:30:55.225Z,29.42
2023-05-25T03:31:55.306Z,28.96
2023-05-25T03:32:55.256Z,29.88
2023-05-25T03:33:55.283Z,27.42
2023-05-25T03:34:55.239Z,30.40
2023-05-25T03:35:55.284Z,28.35
2023-05-25T03:36:55.319Z,29.03
2023-05-25T03:37:55.325Z,28.82
2023-05-25T03:38:55.331Z,29.47
2023-05-25T03:39:55.345Z,30.61
2023-05-25T03:40:55.385Z,27.09
2023-05-25T03:41:55.389Z,29.15
2023-05-25T03:42:55.398Z,26.24
2023-05-25T03:43:55.444Z,27.46
2023-05-25T03:44:55.449Z,27.72
2023-05-25T03:45:55.479Z,28.16
2023-05-25T03:46:55.493Z,27.89
2023-05-25T03:47:55.546Z,29.10
2023-05-25T03:48:55.555Z,27.59
2023-05-25T03:49:55.556Z,26.29
2023-05-25T03:50:55.571Z,28.39
2023-05-25T03:51:55.572Z,27.64
2023-05-25T03:52:55.611Z,29.45
2023-05-25T03:53:55.620Z,25.51
2023-05-25T03:54:55.658Z,26.61
2023-05-25T03:55:55.656Z,27.14
2023-05-25T03:56:55.674Z,27.82
2023-05-25T03:57:55.726Z,29.18
2023-05-25T03:58:55.751Z,28.10
2023-05-25T03:59:55.772Z,26.95
2023-05-25T04:00:55.827Z,29.59
2023-05-25T04:01:55.844Z,25.27
2023-05-25T04:02:55.879Z,28.51
2023-05-25T04:03:56.060Z,31.86
2023-05-25T04:04:55.913Z,27.76
2023-05-25T04:05:55.907Z,27.66
2023-05-25T04:06:55.953Z,25.00
2023-05-25T04:07:55.965Z,30.76
2023-05-25T04:08:55.969Z,25.75
2023-05-25T04:09:55.973Z,27.67
2023-05-25T04:10:56.007Z,25.87
2023-05-25T04:11:56.011Z,29.37
2023-05-25T04:12:56.048Z,28.08
2023-05-25T04:13:56.065Z,29.97
2023-05-25T04:14:56.069Z,37.04
2023-05-25T04:15:56.145Z,37.49
2023-05-25T04:16:56.120Z,36.77
2023-05-25T04:17:56.174Z,37.36
2023-05-25T04:18:56.117Z,34.67
2023-05-25T04:19:56.177Z,37.05
2023-05-25T04:20:56.165Z,33.71
2023-05-25T04:21:56.189Z,36.99
2023-05-25T04:22:56.195Z,37.07
2023-05-25T04:23:56.210Z,38.46
2023-05-25T04:24:56.177Z,37.84
2023-05-25T04:25:56.210Z,38.07
2023-05-25T04:26:56.220Z,41.24
2023-05-25T04:27:56.232Z,40.09
2023-05-25T04:28:56.249Z,40.74
2023-05-25T04:29:56.253Z,40.62
2023-05-25T04:30:56.267Z,41.08
2023-05-25T04:31:56.272Z,42.28
2023-05-25T04:32:56.321Z,41.65
2023-05-25T04:33:56.763Z,40.87
2023-05-25T04:34:56.245Z,41.39
2023-05-25T04:35:56.293Z,45.38
2023-05-25T04:36:56.252Z,43.06
2023-05-25T04:37:56.284Z,41.62
2023-05-25T04:38:56.316Z,46.38
2023-05-25T04:39:56.314Z,47.26
2023-05-25T04:40:56.339Z,43.81
2023-05-25T04:41:56.339Z,42.50
2023-05-25T04:42:56.335Z,44.48
2023-05-25T04:44:09.024Z,44.04
2023-05-25T04:44:57.324Z,44.32
2023-05-25T04:45:56.325Z,44.29
2023-05-25T04:46:56.304Z,44.73
2023-05-25T04:47:56.355Z,45.39
2023-05-25T04:48:56.314Z,43.90
2023-05-25T04:49:56.287Z,42.54
2023-05-25T04:50:56.300Z,45.26
2023-05-25T04:51:56.243Z,46.59
2023-05-25T04:52:56.280Z,36.12
2023-05-25T04:53:56.244Z,28.62
2023-05-25T04:54:56.270Z,25.49
2023-05-25T04:55:56.260Z,26.94
2023-05-25T04:56:56.239Z,25.58
2023-05-25T04:57:56.424Z,28.94
2023-05-25T04:58:56.321Z,25.59
2023-05-25T04:59:56.254Z,25.99
2023-05-25T05:00:56.234Z,25.93
2023-05-25T05:01:56.235Z,27.07
2023-05-25T05:02:56.350Z,27.85
2023-05-25T05:03:56.269Z,27.93
2023-05-25T05:04:56.152Z,25.44
2023-05-25T05:05:56.191Z,27.22
2023-05-25T05:06:58.631Z,27.83
2023-05-25T05:07:56.247Z,28.06
2023-05-25T05:08:56.137Z,26.85
2023-05-25T05:09:56.156Z,27.25
2023-05-25T05:10:56.168Z,26.82
2023-05-25T05:11:56.131Z,28.30
2023-05-25T05:12:56.145Z,29.76
2023-05-25T05:13:56.106Z,27.66
2023-05-25T05:14:56.135Z,25.43
2023-05-25T05:15:56.159Z,29.03
2023-05-25T05:16:56.241Z,26.45
2023-05-25T05:17:56.191Z,26.79
2023-05-25T05:18:56.125Z,26.24
2023-05-25T05:19:56.167Z,25.00
2023-05-25T05:20:56.172Z,28.88
2023-05-25T05:21:56.105Z,29.85
2023-05-25T05:22:56.084Z,27.91
2023-05-25T05:23:56.097Z,29.53
2023-05-25T05:24:56.061Z,28.38
2023-05-25T05:25:56.060Z,29.74
2023-05-25T05:26:58.920Z,29.24
2023-05-25T05:27:56.044Z,29.56
2023-05-25T05:28:56.011Z,27.21
2023-05-25T05:29:56.027Z,30.55
2023-05-25T05:30:56.010Z,20.68
2023-05-25T05:31:56.129Z,23.89
2023-05-25T05:32:55.997Z,28.67
2023-05-25T05:33:56.569Z,28.84
2023-05-25T05:34:55.993Z,30.02
2023-05-25T05:35:56.008Z,25.00
2023-05-25T05:36:58.081Z,27.02
2023-05-25T05:37:55.976Z,27.36
2023-05-25T05:38:55.956Z,27.97
2023-05-25T05:39:55.963Z,28.80
2023-05-25T05:40:55.951Z,23.74
2023-05-25T05:41:56.379Z,25.38
2023-05-25T05:42:56.092Z,27.61
2023-05-25T05:43:56.799Z,25.03
2023-05-25T05:44:55.975Z,27.78
2023-05-25T05:45:55.902Z,27.61
2023-05-25T05:46:55.922Z,27.93
2023-05-25T05:47:55.945Z,24.15
2023-05-25T05:48:56.305Z,33.27
2023-05-25T05:49:55.864Z,43.38
2023-05-25T05:50:55.854Z,56.62
2023-05-25T05:51:56.805Z,67.87
2023-05-25T05:52:55.855Z,72.92
2023-05-25T05:53:55.871Z,73.92
2023-05-25T05:54:55.853Z,78.87
2023-05-25T05:55:56.435Z,83.82
2023-05-25T05:56:55.841Z,90.79
2023-05-25T05:57:55.795Z,92.05
2023-05-25T05:58:56.296Z,94.85
2023-05-25T05:59:55.828Z,101.00
2023-05-25T06:00:55.819Z,106.16
2023-05-25T06:01:55.848Z,108.45
2023-05-25T06:02:55.820Z,108.30
2023-05-25T06:03:55.795Z,113.27
2023-05-25T06:04:55.799Z,121.76
2023-05-25T06:05:55.833Z,124.73
2023-05-25T06:06:55.762Z,123.22
2023-05-25T06:07:55.768Z,124.53
2023-05-25T06:08:55.779Z,124.54
2023-05-25T06:09:55.780Z,133.60
2023-05-25T06:10:55.744Z,126.10
2023-05-25T06:11:55.745Z,122.44
2023-05-25T06:12:55.713Z,122.60
2023-05-25T06:13:55.876Z,124.93
2023-05-25T06:14:55.711Z,120.71
2023-05-25T06:15:55.721Z,126.28
2023-05-25T06:16:55.772Z,126.65
2023-05-25T06:17:55.811Z,116.14
2023-05-25T06:18:55.656Z,118.90
2023-05-25T06:19:55.687Z,130.53
2023-05-25T06:20:56.320Z,135.91
2023-05-25T06:21:55.708Z,136.44
2023-05-25T06:22:55.647Z,138.55
2023-05-25T06:23:55.666Z,137.60
2023-05-25T06:24:55.628Z,140.73
2023-05-25T06:25:55.635Z,140.60
2023-05-25T06:26:55.613Z,144.27
2023-05-25T06:27:55.690Z,146.32
2023-05-25T06:28:55.715Z,143.27
2023-05-25T06:29:55.776Z,144.10
2023-05-25T06:30:55.812Z,136.68
2023-05-25T06:31:55.920Z,140.05
2023-05-25T06:32:56.008Z,140.16
2023-05-25T06:33:56.003Z,141.62
2023-05-25T06:34:56.068Z,138.40
2023-05-25T06:36:56.231Z,145.29
2023-05-25T06:37:56.250Z,147.80
2023-05-25T06:38:57.820Z,146.12
2023-05-25T06:39:57.688Z,143.43
2023-05-25T06:40:56.417Z,142.35
2023-05-25T06:41:56.521Z,139.49
2023-05-25T06:42:56.500Z,146.34
2023-05-25T06:43:56.590Z,139.88
2023-05-25T06:44:56.630Z,148.49
2023-05-25T06:45:56.726Z,146.60
2023-05-25T06:46:56.758Z,139.91
2023-05-25T06:47:56.838Z,149.51
2023-05-25T06:48:56.866Z,139.71
2023-05-25T06:49:56.953Z,134.61
2023-05-25T06:50:56.989Z,135.75
2023-05-25T06:51:57.068Z,138.77
2023-05-25T06:53:01.851Z,150.05
2023-05-25T06:53:57.116Z,144.02
2023-05-25T06:54:57.096Z,126.40
2023-05-25T06:55:57.877Z,131.31
2023-05-25T06:56:57.033Z,130.06
2023-05-25T06:57:57.034Z,127.82
2023-05-25T06:58:57.008Z,134.25
2023-05-25T06:59:57.008Z,138.20
2023-05-25T07:00:57.033Z,146.46
2023-05-25T07:01:57.098Z,151.70
2023-05-25T07:02:57.053Z,143.98
2023-05-25T07:03:56.983Z,144.81
2023-05-25T07:04:57.040Z,131.90
2023-05-25T07:05:56.996Z,134.52
2023-05-25T07:06:56.960Z,137.79
2023-05-25T07:07:56.974Z,144.25
2023-05-25T07:08:57.845Z,135.60
2023-05-25T07:09:56.981Z,136.56
2023-05-25T07:10:56.935Z,138.90
2023-05-25T07:11:56.956Z,139.51
2023-05-25T07:12:56.953Z,148.87
2023-05-25T07:13:56.929Z,138.75
2023-05-25T07:14:56.946Z,130.97
2023-05-25T07:15:57.049Z,139.07
2023-05-25T07:16:57.033Z,128.00
2023-05-25T07:17:57.139Z,130.61
2023-05-25T07:18:59.321Z,124.14
2023-05-25T07:19:57.005Z,128.53
2023-05-25T07:20:56.995Z,132.70
2023-05-25T07:21:56.997Z,142.11
2023-05-25T07:22:57.013Z,138.49
2023-05-25T07:23:57.858Z,136.57
2023-05-25T07:24:56.944Z,132.02
2023-05-25T07:25:56.940Z,136.19
2023-05-25T07:26:56.947Z,146.77
2023-05-25T07:27:56.939Z,143.74
2023-05-25T07:28:56.954Z,139.98
2023-05-25T07:29:56.919Z,147.13
2023-05-25T07:30:56.929Z,143.32
2023-05-25T07:31:56.952Z,133.51
2023-05-25T07:32:56.960Z,130.97
2023-05-25T07:33:56.872Z,142.36
2023-05-25T07:34:56.907Z,134.89
2023-05-25T07:35:56.915Z,136.94
2023-05-25T07:36:56.830Z,144.86
2023-05-25T07:37:56.844Z,135.30
2023-05-25T07:38:57.403Z,140.62
2023-05-25T07:39:56.894Z,134.39
2023-05-25T07:40:56.832Z,144.03
2023-05-25T07:41:56.834Z,139.53
2023-05-25T07:42:56.821Z,139.75
2023-05-25T07:43:56.959Z,142.52
2023-05-25T07:44:56.786Z,143.50
2023-05-25T07:45:56.796Z,148.26
2023-05-25T07:46:56.898Z,144.05
2023-05-25T07:47:56.844Z,151.24
2023-05-25T07:48:56.852Z,152.51
2023-05-25T07:49:56.840Z,156.44
2023-05-25T07:50:56.771Z,150.70
2023-05-25T07:51:56.777Z,152.23
2023-05-25T07:52:56.782Z,154.22
2023-05-25T07:53:56.721Z,156.58
2023-05-25T07:54:56.747Z,158.03
2023-05-25T07:55:56.737Z,158.07
2023-05-25T07:56:56.699Z,162.29
2023-05-25T07:57:56.722Z,163.96
2023-05-25T07:58:56.722Z,168.38
2023-05-25T07:59:56.689Z,168.56
2023-05-25T08:00:56.675Z,169.60
2023-05-25T08:01:56.721Z,166.24
2023-05-25T08:02:56.847Z,167.55
2023-05-25T08:03:56.783Z,159.28
2023-05-25T08:04:56.696Z,163.41
2023-05-25T08:05:56.675Z,164.02
2023-05-25T08:06:56.664Z,158.56
2023-05-25T08:07:56.619Z,165.87
2023-05-25T08:08:56.630Z,165.55
2023-05-25T08:09:56.702Z,164.78
2023-05-25T08:10:56.743Z,162.94
2023-05-25T08:12:07.727Z,165.25
2023-05-25T08:12:58.868Z,164.26
2023-05-25T08:13:56.744Z,159.67
2023-05-25T08:14:56.771Z,161.85
2023-05-25T08:15:56.785Z,163.94
2023-05-25T08:16:56.860Z,159.81
2023-05-25T08:17:56.960Z,148.86
2023-05-25T08:18:57.379Z,154.77
2023-05-25T08:19:56.968Z,166.37
2023-05-25T08:20:56.968Z,161.73
2023-05-25T08:21:57.858Z,164.99
2023-05-25T08:22:57.083Z,167.46
2023-05-25T08:23:57.199Z,171.99
2023-05-25T08:24:57.214Z,166.99
2023-05-25T08:25:57.253Z,169.58
2023-05-25T08:26:57.326Z,171.31
2023-05-25T08:27:57.372Z,172.49
2023-05-25T08:28:57.447Z,167.41
2023-05-25T08:29:57.515Z,163.67
2023-05-25T08:30:57.562Z,165.30
2023-05-25T08:31:57.613Z,161.99
2023-05-25T08:32:57.719Z,162.77
2023-05-25T08:33:57.723Z,165.12
2023-05-25T08:34:57.744Z,157.14
2023-05-25T08:35:57.794Z,160.79
2023-05-25T08:36:57.928Z,160.85
2023-05-25T08:37:57.912Z,163.97
2023-05-25T08:38:58.034Z,160.76
2023-05-25T08:39:58.030Z,168.53
2023-05-25T08:40:58.037Z,164.36
2023-05-25T08:41:58.090Z,161.89
2023-05-25T08:42:58.165Z,167.81
2023-05-25T08:43:58.366Z,169.70
2023-05-25T08:44:58.275Z,162.53
2023-05-25T08:45:58.337Z,169.26
2023-05-25T08:46:58.389Z,167.08
2023-05-25T08:47:58.516Z,166.54
2023-05-25T08:48:58.590Z,166.20
2023-05-25T08:49:58.566Z,164.16
2023-05-25T08:50:58.669Z,165.01
2023-05-25T08:51:58.683Z,157.97
2023-05-25T08:52:58.747Z,152.21
2023-05-25T08:53:58.800Z,159.41
2023-05-25T08:54:58.978Z,165.66
2023-05-25T08:55:58.918Z,160.63
2023-05-25T08:56:58.925Z,164.05
2023-05-25T08:57:59.009Z,161.70
2023-05-25T08:58:59.093Z,155.95
2023-05-25T08:59:59.124Z,146.36
2023-05-25T09:00:59.186Z,144.67
2023-05-25T09:01:59.321Z,150.38
2023-05-25T09:02:59.445Z,150.50
2023-05-25T09:03:59.396Z,143.96
2023-05-25T09:04:59.450Z,140.19
2023-05-25T09:05:59.509Z,144.76
2023-05-25T09:07:09.458Z,147.14
2023-05-25T09:08:00.523Z,147.40
2023-05-25T09:08:59.513Z,147.54
2023-05-25T09:09:59.506Z,135.40
2023-05-25T09:10:59.490Z,139.05
2023-05-25T09:11:59.550Z,143.66
2023-05-25T09:13:06.599Z,145.63
2023-05-25T09:14:00.501Z,145.98
2023-05-25T09:14:59.496Z,145.73
2023-05-25T09:15:59.493Z,135.03
2023-05-25T09:16:59.579Z,140.30
2023-05-25T09:17:59.524Z,151.67
2023-05-25T09:18:59.448Z,146.15
2023-05-25T09:19:59.460Z,139.40
2023-05-25T09:20:59.475Z,128.84
2023-05-25T09:22:13.531Z,132.82
2023-05-25T09:23:00.450Z,133.06
2023-05-25T09:23:59.434Z,132.48
2023-05-25T09:24:59.427Z,131.05
2023-05-25T09:25:59.429Z,131.32
2023-05-25T09:26:59.423Z,132.71
2023-05-25T09:28:01.317Z,134.84
2023-05-25T09:29:00.410Z,135.42
2023-05-25T09:29:59.375Z,135.83
2023-05-25T09:30:59.376Z,135.76
2023-05-25T09:31:59.426Z,133.16
2023-05-25T09:32:59.407Z,129.64
2023-05-25T09:33:59.387Z,127.71
2023-05-25T09:34:59.376Z,125.48
2023-05-25T09:35:59.361Z,117.22
2023-05-25T09:36:59.516Z,120.44
2023-05-25T09:37:59.629Z,127.93
2023-05-25T09:38:59.563Z,134.05
2023-05-25T09:39:59.493Z,135.81
2023-05-25T09:40:59.562Z,144.12
2023-05-25T09:41:59.563Z,129.42
2023-05-25T09:42:59.648Z,118.29
2023-05-25T09:44:59.785Z,111.82
2023-05-25T09:45:59.851Z,131.84
2023-05-25T09:46:59.895Z,134.45
2023-05-25T09:48:00.028Z,137.58
2023-05-25T09:48:59.977Z,133.08
2023-05-25T09:50:00.084Z,116.84
2023-05-25T09:51:00.146Z,119.90
2023-05-25T09:52:00.234Z,116.08
2023-05-25T09:53:00.227Z,129.79
2023-05-25T09:54:00.312Z,139.12
2023-05-25T09:55:00.356Z,135.11
2023-05-25T09:56:01.791Z,119.18
2023-05-25T09:57:00.445Z,121.44
2023-05-25T09:58:00.503Z,134.49
2023-05-25T09:59:00.556Z,139.01
2023-05-25T10:00:00.555Z,136.02
2023-05-25T10:01:00.643Z,142.99
2023-05-25T10:02:00.739Z,137.88
2023-05-25T10:03:00.715Z,153.79
2023-05-25T10:04:04.729Z,136.71
2023-05-25T10:05:00.763Z,129.93
2023-05-25T10:06:00.761Z,108.93
2023-05-25T10:07:00.720Z,126.50
2023-05-25T10:08:00.729Z,124.44
2023-05-25T10:09:00.753Z,122.70
2023-05-25T10:10:00.714Z,133.86
2023-05-25T10:11:00.719Z,136.50
2023-05-25T10:12:00.696Z,144.32
2023-05-25T10:13:00.692Z,147.51
2023-05-25T10:14:00.939Z,153.60
2023-05-25T10:15:00.682Z,154.78
2023-05-25T10:16:00.742Z,150.37
2023-05-25T10:17:00.751Z,145.29
2023-05-25T10:18:00.821Z,144.72
2023-05-25T10:19:00.883Z,145.96
2023-05-25T10:20:01.042Z,145.10
2023-05-25T10:21:01.176Z,139.95
2023-05-25T10:22:01.029Z,128.60
2023-05-25T10:23:00.995Z,131.05
2023-05-25T10:24:01.056Z,131.41
2023-05-25T10:25:01.077Z,144.86
2023-05-25T10:26:01.098Z,143.45
2023-05-25T10:27:07.686Z,130.10
2023-05-25T10:28:02.106Z,130.96
2023-05-25T10:29:01.116Z,131.64
2023-05-25T10:30:01.113Z,135.70
2023-05-25T10:31:01.149Z,128.78
2023-05-25T10:32:01.169Z,129.14
2023-05-25T10:33:01.106Z,131.76
2023-05-25T10:34:01.126Z,124.22
2023-05-25T10:35:01.031Z,142.74
2023-05-25T10:37:01.050Z,147.29
2023-05-25T10:38:01.007Z,145.81
2023-05-25T10:39:01.012Z,150.36
2023-05-25T10:40:01.026Z,155.25
2023-05-25T10:41:01.025Z,150.42
2023-05-25T10:42:01.012Z,141.40
2023-05-25T10:43:01.068Z,129.84
2023-05-25T10:44:01.100Z,133.12
2023-05-25T10:45:01.118Z,137.84
2023-05-25T10:46:01.146Z,146.59
2023-05-25T10:47:01.206Z,147.79
2023-05-25T10:48:01.226Z,143.23
2023-05-25T10:49:01.253Z,139.23
2023-05-25T10:50:01.264Z,141.52
2023-05-25T10:51:01.269Z,139.43
2023-05-25T10:52:01.322Z,138.83
2023-05-25T10:53:01.347Z,139.11
2023-05-25T10:54:01.366Z,137.48
2023-05-25T10:55:01.366Z,135.41
2023-05-25T10:56:01.411Z,133.25
2023-05-25T10:57:01.404Z,124.12
2023-05-25T10:58:01.435Z,136.46
2023-05-25T10:59:01.443Z,126.19
2023-05-25T11:00:01.541Z,136.49
2023-05-25T11:01:01.616Z,132.73
2023-05-25T11:02:01.628Z,141.45
2023-05-25T11:03:01.534Z,143.42
2023-05-25T11:04:01.598Z,140.14
2023-05-25T11:05:01.589Z,124.48
2023-05-25T11:06:01.611Z,116.01
2023-05-25T11:07:02.658Z,127.58
2023-05-25T11:08:01.646Z,130.70
2023-05-25T11:09:02.428Z,131.04
2023-05-25T11:10:01.720Z,118.37
2023-05-25T11:11:01.720Z,127.80
2023-05-25T11:12:01.827Z,132.21
2023-05-25T11:13:01.750Z,123.73
2023-05-25T11:14:01.752Z,133.08
2023-05-25T11:15:01.832Z,137.54
2023-05-25T11:16:01.812Z,131.62
2023-05-25T11:17:01.915Z,139.10
2023-05-25T11:18:01.956Z,146.06
2023-05-25T11:19:01.949Z,135.28
2023-05-25T11:20:02.043Z,142.89
2023-05-25T11:21:02.021Z,132.97
2023-05-25T11:22:02.036Z,130.95
2023-05-25T11:23:02.097Z,132.01
2023-05-25T11:24:02.166Z,118.27
2023-05-25T11:25:02.447Z,124.15
2023-05-25T11:26:02.167Z,118.69
2023-05-25T11:27:02.184Z,121.50
2023-05-25T11:28:02.225Z,129.23
2023-05-25T11:29:02.238Z,119.37
2023-05-25T11:30:02.231Z,125.22
2023-05-25T11:31:02.363Z,120.07
2023-05-25T11:32:02.320Z,123.44
2023-05-25T11:33:02.365Z,127.26
2023-05-25T11:34:02.369Z,128.51
2023-05-25T11:35:02.508Z,111.31
2023-05-25T11:36:02.372Z,119.34
2023-05-25T11:37:02.448Z,136.24
2023-05-25T11:38:02.470Z,141.97
2023-05-25T11:39:08.517Z,148.76
2023-05-25T11:40:03.517Z,148.90
2023-05-25T11:41:02.521Z,129.41
2023-05-25T11:42:02.429Z,119.38
2023-05-25T11:43:02.425Z,95.33
2023-05-25T11:44:02.376Z,90.62
2023-05-25T11:45:02.571Z,82.14
2023-05-25T11:46:02.556Z,81.80
2023-05-25T11:47:02.537Z,81.86
2023-05-25T11:48:02.599Z,80.26
2023-05-25T11:49:02.600Z,93.54
2023-05-25T11:50:02.660Z,72.00
2023-05-25T11:51:02.707Z,70.18
2023-05-25T11:52:02.816Z,73.73
2023-05-25T11:53:02.845Z,62.19
2023-05-25T11:54:02.821Z,66.36
2023-05-25T11:55:02.893Z,66.10
2023-05-25T11:56:08.070Z,53.79
2023-05-25T11:57:03.931Z,39.88
2023-05-25T11:58:02.918Z,42.82
2023-05-25T11:59:02.895Z,32.54
2023-05-25T12:00:02.877Z,42.30
2023-05-25T12:01:02.865Z,41.23
2023-05-25T12:02:02.877Z,40.67
2023-05-25T12:03:03.009Z,29.68
2023-05-25T12:04:03.005Z,36.93
2023-05-25T12:05:02.974Z,27.59
2023-05-25T12:06:02.937Z,35.96
2023-05-25T12:07:02.963Z,27.15
2023-05-25T12:08:03.021Z,34.71
2023-05-25T12:09:03.037Z,32.55
2023-05-25T12:10:03.483Z,33.46
2023-05-25T12:11:03.067Z,28.94
2023-05-25T12:12:03.189Z,37.84
2023-05-25T12:13:03.242Z,35.55
2023-05-25T12:14:03.203Z,46.29
2023-05-25T12:15:03.450Z,29.48
2023-05-25T12:16:03.416Z,25.67
2023-05-25T12:17:03.338Z,30.47
2023-05-25T12:18:03.369Z,35.67
2023-05-25T12:19:03.389Z,32.97
2023-05-25T12:20:03.441Z,35.66
2023-05-25T12:21:03.427Z,49.26
2023-05-25T12:22:03.533Z,52.94
2023-05-25T12:23:03.605Z,24.23
2023-05-25T12:24:03.640Z,33.37
2023-05-25T12:25:03.948Z,85.65
2023-05-25T12:26:03.713Z,95.13
2023-05-25T12:27:03.758Z,95.76
2023-05-25T12:28:03.821Z,69.01
2023-05-25T12:29:03.902Z,53.14
2023-05-25T12:30:03.931Z,91.38
2023-05-25T12:31:04.096Z,56.85
2023-05-25T12:32:04.088Z,71.16
2023-05-25T12:33:05.012Z,87.31
2023-05-25T12:34:04.198Z,92.90
2023-05-25T12:35:04.249Z,106.97
2023-05-25T12:36:04.313Z,98.04
2023-05-25T12:37:04.360Z,102.12
2023-05-25T12:38:04.420Z,108.90
2023-05-25T12:39:04.470Z,81.52
2023-05-25T12:40:04.983Z,105.60
2023-05-25T12:41:04.581Z,125.55
2023-05-25T12:42:04.697Z,102.78
2023-05-25T12:43:04.736Z,112.51
2023-05-25T12:44:04.806Z,121.38
2023-05-25T12:45:04.887Z,127.06
2023-05-25T12:46:04.941Z,125.28